< < Back
Terminal Aerodrome Forecast


Current Version              Previous Versions:   1  2  3  4  5  6  7  8  9  

Terminal Aerodrome Forecast

705
FTUS42 KGSP 011100
TAFAND
TAF
KAND 011120Z 0112/0212 00000KT P6SM SKC
     FM011500 22005KT P6SM FEW045
     FM020300 00000KT P6SM FEW250
     FM021000 00000KT 5SM BR FEW250=



Latest METAR

019
SAUS70 KWBC 012000 RRX
MTRAND
METAR KAND 011956Z AUTO 24005KT 10SM FEW060 29/13 A2998 RMK AO2 SLP143
T02890133


USA.gov is the U.S. government's official web portal to all federal, state and local government web resources and services.